createdAt,value
2018-05-04T00:01:39.558Z,13.14
2018-05-04T00:04:07.324Z,13.16
2018-05-04T00:06:35.089Z,13.14
2018-05-04T00:09:02.953Z,13.05
2018-05-04T00:11:30.887Z,12.92
2018-05-04T00:13:58.690Z,12.79
2018-05-04T00:16:26.398Z,12.76
2018-05-04T00:18:54.216Z,12.80
2018-05-04T00:21:21.930Z,13.00
2018-05-04T00:23:49.746Z,12.96
2018-05-04T00:26:17.613Z,12.94
2018-05-04T00:28:45.479Z,12.89
2018-05-04T00:31:13.244Z,12.91
2018-05-04T00:33:40.999Z,12.86
2018-05-04T00:36:08.774Z,12.88
2018-05-04T00:38:36.539Z,12.81
2018-05-04T00:41:04.408Z,12.79
2018-05-04T00:43:32.228Z,12.81
2018-05-04T00:46:00.039Z,12.75
2018-05-04T00:48:28.112Z,12.65
2018-05-04T00:50:55.977Z,12.64
2018-05-04T00:53:23.748Z,12.63
2018-05-04T00:55:51.750Z,12.61
2018-05-04T00:58:19.374Z,12.62
2018-05-04T01:00:47.241Z,12.65
2018-05-04T01:03:14.903Z,12.58
2018-05-04T01:05:42.725Z,12.64
2018-05-04T01:08:10.530Z,12.60
2018-05-04T01:10:38.295Z,12.60
2018-05-04T01:13:06.001Z,12.61
2018-05-04T01:15:33.715Z,12.59
2018-05-04T01:18:01.384Z,12.58
2018-05-04T01:20:29.250Z,12.58
2018-05-04T01:22:56.997Z,12.55
2018-05-04T01:25:24.780Z,12.49
2018-05-04T01:27:52.548Z,12.40
2018-05-04T01:30:20.266Z,12.35
2018-05-04T01:32:48.072Z,12.34
2018-05-04T01:35:15.837Z,12.35
2018-05-04T01:37:43.498Z,12.21
2018-05-04T01:40:11.264Z,12.21
2018-05-04T01:42:39.123Z,12.18
2018-05-04T01:45:06.788Z,12.17
2018-05-04T01:47:34.455Z,12.16
2018-05-04T01:50:02.222Z,12.14
2018-05-04T01:52:29.989Z,12.09
2018-05-04T01:54:57.640Z,12.11
2018-05-04T01:57:25.410Z,12.07
2018-05-04T01:59:53.137Z,12.09
2018-05-04T02:02:20.837Z,12.13
2018-05-04T02:04:48.704Z,12.05
2018-05-04T02:07:16.467Z,12.13
2018-05-04T02:09:44.300Z,12.05
2018-05-04T02:12:12.106Z,12.07
2018-05-04T02:14:39.970Z,12.09
2018-05-04T02:17:07.799Z,12.13
2018-05-04T02:19:35.487Z,12.09
2018-05-04T02:22:03.260Z,12.04
2018-05-04T02:24:30.977Z,12.05
2018-05-04T02:26:58.681Z,12.07
2018-05-04T02:29:26.655Z,12.13
2018-05-04T02:31:54.375Z,12.14
2018-05-04T02:34:22.184Z,12.11
2018-05-04T02:36:49.917Z,12.04
2018-05-04T02:39:17.609Z,12.10
2018-05-04T02:41:45.376Z,12.04
2018-05-04T02:44:13.084Z,12.01
2018-05-04T02:46:40.811Z,11.97
2018-05-04T02:49:08.671Z,11.96
2018-05-04T02:51:36.393Z,11.92
2018-05-04T02:54:04.204Z,11.90
2018-05-04T02:56:31.858Z,11.89
2018-05-04T02:58:59.624Z,11.88
2018-05-04T03:01:27.287Z,11.81
2018-05-04T03:03:55.014Z,11.80
2018-05-04T03:06:22.816Z,11.78
2018-05-04T03:08:50.582Z,11.79
2018-05-04T03:11:18.390Z,11.68
2018-05-04T03:13:46.212Z,11.70
2018-05-04T03:16:13.921Z,11.68
2018-05-04T03:18:41.741Z,11.64
2018-05-04T03:21:09.401Z,11.69
2018-05-04T03:23:37.121Z,11.59
2018-05-04T03:26:04.933Z,11.57
2018-05-04T03:28:32.701Z,11.57
2018-05-04T03:31:00.565Z,11.54
2018-05-04T03:33:28.327Z,11.52
2018-05-04T03:35:55.994Z,11.48
2018-05-04T03:38:23.760Z,11.50
2018-05-04T03:40:52.443Z,11.46
2018-05-04T03:43:20.151Z,11.46
2018-05-04T03:45:47.965Z,11.44
2018-05-04T03:48:15.735Z,11.41
2018-05-04T03:50:43.600Z,11.41
2018-05-04T03:53:11.359Z,11.40
2018-05-04T03:55:39.133Z,11.40
2018-05-04T03:58:18.774Z,11.39
2018-05-04T04:00:58.517Z,11.35
2018-05-04T04:03:38.160Z,11.37
2018-05-04T04:06:05.826Z,11.40
2018-05-04T04:08:33.587Z,11.40
2018-05-04T04:11:01.453Z,11.44
2018-05-04T04:13:29.219Z,11.44
2018-05-04T04:15:57.031Z,11.46
2018-05-04T04:18:24.849Z,11.49
2018-05-04T04:20:52.573Z,11.52
2018-05-04T04:23:20.307Z,11.54
2018-05-04T04:25:48.049Z,11.64
2018-05-04T04:28:15.935Z,11.64
2018-05-04T04:30:43.774Z,11.62
2018-05-04T04:33:11.743Z,11.63
2018-05-04T04:35:39.567Z,11.75
2018-05-04T04:38:07.375Z,11.71
2018-05-04T04:40:35.099Z,11.85
2018-05-04T04:43:02.904Z,11.89
2018-05-04T04:45:30.769Z,11.87
2018-05-04T04:47:58.624Z,11.93
2018-05-04T04:50:26.406Z,11.95
2018-05-04T04:52:54.165Z,12.08
2018-05-04T04:55:21.874Z,12.14
2018-05-04T04:57:49.690Z,12.18
2018-05-04T05:00:17.464Z,12.38
2018-05-04T05:02:45.326Z,12.41
2018-05-04T05:05:13.091Z,12.51
2018-05-04T05:07:40.857Z,12.63
2018-05-04T05:10:08.621Z,12.66
2018-05-04T05:12:36.487Z,12.98
2018-05-04T05:15:04.247Z,13.07
2018-05-04T05:17:31.915Z,13.27
2018-05-04T05:19:59.739Z,13.13
2018-05-04T05:22:27.548Z,13.15
2018-05-04T05:24:55.310Z,13.30
2018-05-04T05:27:23.074Z,13.50
2018-05-04T05:29:50.842Z,13.52
2018-05-04T05:32:18.594Z,13.66
2018-05-04T05:34:46.313Z,13.82
2018-05-04T05:37:14.078Z,14.03
2018-05-04T05:39:41.995Z,14.27
2018-05-04T05:42:09.762Z,14.23
2018-05-04T05:44:37.478Z,14.38
2018-05-04T05:47:05.296Z,14.71
2018-05-04T05:49:33.053Z,14.96
2018-05-04T05:52:00.798Z,15.16
2018-05-04T05:54:28.646Z,15.19
2018-05-04T05:56:56.453Z,15.78
2018-05-04T05:59:24.177Z,15.57
2018-05-04T06:01:52.084Z,15.33
2018-05-04T06:04:20.032Z,16.00
2018-05-04T06:06:47.819Z,17.45
2018-05-04T06:09:16.512Z,18.44
2018-05-04T06:11:44.334Z,17.25
2018-05-04T06:14:12.136Z,16.62
2018-05-04T06:16:40.108Z,16.30
2018-05-04T06:19:07.766Z,16.53
2018-05-04T06:21:35.775Z,16.87
2018-05-04T06:24:03.501Z,17.32
2018-05-04T06:26:31.162Z,17.14
2018-05-04T06:28:59.544Z,18.08
2018-05-04T06:31:27.514Z,19.20
2018-05-04T06:33:55.417Z,18.85
2018-05-04T06:36:23.346Z,18.31
2018-05-04T06:38:51.761Z,18.89
2018-05-04T06:41:19.667Z,19.12
2018-05-04T06:43:47.531Z,19.67
2018-05-04T06:46:15.436Z,21.12
2018-05-04T06:48:43.144Z,22.09
2018-05-04T06:51:11.062Z,23.09
2018-05-04T06:53:38.828Z,23.75
2018-05-04T06:56:06.490Z,23.78
2018-05-04T06:58:34.354Z,23.73
2018-05-04T07:01:02.071Z,22.90
2018-05-04T07:03:29.836Z,23.46
2018-05-04T07:05:57.839Z,23.12
2018-05-04T07:08:25.514Z,22.63
2018-05-04T07:10:53.282Z,21.92
2018-05-04T07:13:21.145Z,23.26
2018-05-04T07:15:48.876Z,23.85
2018-05-04T07:18:16.678Z,22.74
2018-05-04T07:20:44.336Z,23.60
2018-05-04T07:23:11.994Z,22.38
2018-05-04T07:25:39.766Z,22.69
2018-05-04T07:28:07.528Z,21.55
2018-05-04T07:30:35.291Z,22.74
2018-05-04T07:33:03.051Z,23.12
2018-05-04T07:35:30.720Z,23.51
2018-05-04T07:37:58.523Z,23.80
2018-05-04T07:40:26.351Z,23.35
2018-05-04T07:42:54.056Z,22.78
2018-05-04T07:45:21.874Z,22.24
2018-05-04T07:47:49.542Z,22.80
2018-05-04T07:50:17.408Z,22.31
2018-05-04T07:52:45.063Z,22.48
2018-05-04T07:55:12.848Z,23.21
2018-05-04T07:57:40.598Z,22.73
2018-05-04T08:00:08.466Z,22.27
2018-05-04T08:02:36.293Z,22.22
2018-05-04T08:05:04.034Z,21.84
2018-05-04T08:07:32.476Z,21.85
2018-05-04T08:10:00.134Z,22.05
2018-05-04T08:12:27.902Z,21.99
2018-05-04T08:14:55.774Z,22.22
2018-05-04T08:17:23.502Z,22.71
2018-05-04T08:19:51.198Z,22.80
2018-05-04T08:22:18.904Z,22.09
2018-05-04T08:24:46.724Z,22.98
2018-05-04T08:27:14.491Z,22.74
2018-05-04T08:29:42.360Z,22.90
2018-05-04T08:32:10.169Z,22.92
2018-05-04T08:34:37.889Z,23.58
2018-05-04T08:37:05.702Z,23.80
2018-05-04T08:39:33.525Z,24.50
2018-05-04T08:42:01.285Z,24.69
2018-05-04T08:44:29.044Z,24.56
2018-05-04T08:46:56.914Z,24.23
2018-05-04T08:49:24.884Z,24.07
2018-05-04T08:51:52.604Z,24.26
2018-05-04T08:54:20.415Z,24.80
2018-05-04T08:56:48.587Z,24.88
2018-05-04T08:59:16.462Z,24.64
2018-05-04T09:01:44.199Z,24.68
2018-05-04T09:04:11.880Z,25.09
2018-05-04T09:06:39.642Z,24.91
2018-05-04T09:09:07.406Z,25.09
2018-05-04T09:11:35.273Z,24.57
2018-05-04T09:14:02.987Z,24.77
2018-05-04T09:16:30.803Z,24.26
2018-05-04T09:18:58.458Z,24.15
2018-05-04T09:21:26.128Z,24.43
2018-05-04T09:23:53.783Z,24.66
2018-05-04T09:26:21.643Z,24.21
2018-05-04T09:28:49.414Z,23.92
2018-05-04T09:31:17.131Z,23.56
2018-05-04T09:33:44.951Z,22.79
2018-05-04T09:36:12.784Z,22.74
2018-05-04T09:38:40.625Z,22.78
2018-05-04T09:41:08.448Z,22.36
2018-05-04T09:43:36.370Z,22.40
2018-05-04T09:46:04.182Z,22.54
2018-05-04T09:48:31.946Z,22.71
2018-05-04T09:50:59.763Z,22.80
2018-05-04T09:53:27.585Z,23.00
2018-05-04T09:55:55.376Z,22.85
2018-05-04T09:58:23.213Z,23.13
2018-05-04T10:00:50.861Z,23.09
2018-05-04T10:03:18.639Z,23.14
2018-05-04T10:05:46.448Z,23.16
2018-05-04T10:08:14.205Z,21.92
2018-05-04T10:10:41.929Z,21.15
2018-05-04T10:13:09.592Z,21.00
2018-05-04T10:15:37.459Z,20.65
2018-05-04T10:18:05.327Z,20.45
2018-05-04T10:20:33.094Z,20.60
2018-05-04T10:23:00.754Z,20.87
2018-05-04T10:25:28.416Z,20.84
2018-05-04T10:27:56.180Z,20.54
2018-05-04T10:30:23.814Z,20.80
2018-05-04T10:32:51.754Z,20.76
2018-05-04T10:35:19.680Z,20.64
2018-05-04T10:37:47.540Z,20.93
2018-05-04T10:40:15.303Z,21.46
2018-05-04T10:42:43.276Z,21.71
2018-05-04T10:45:11.010Z,22.44
2018-05-04T10:47:38.807Z,22.61
2018-05-04T10:50:06.497Z,22.77
2018-05-04T10:52:34.182Z,23.19
2018-05-04T10:55:02.003Z,22.64
2018-05-04T10:57:29.786Z,22.51
2018-05-04T10:59:57.586Z,23.03
2018-05-04T11:02:25.402Z,23.29
2018-05-04T11:04:53.364Z,22.79
2018-05-04T11:07:21.029Z,22.21
2018-05-04T11:09:48.793Z,22.64
2018-05-04T11:12:16.520Z,22.54
2018-05-04T11:14:44.216Z,22.15
2018-05-04T11:17:11.932Z,22.23
2018-05-04T11:19:39.744Z,22.59
2018-05-04T11:22:07.509Z,22.61
2018-05-04T11:27:02.320Z,23.38
2018-05-04T11:29:29.983Z,22.94
2018-05-04T11:31:57.747Z,23.84
2018-05-04T11:34:25.614Z,23.15
2018-05-04T11:36:53.378Z,24.13
2018-05-04T11:39:21.048Z,24.72
2018-05-04T11:41:48.909Z,24.39
2018-05-04T11:44:16.673Z,23.99
2018-05-04T11:46:44.437Z,24.65
2018-05-04T11:49:12.103Z,24.23
2018-05-04T11:51:39.966Z,25.11
2018-05-04T11:54:07.734Z,25.59
2018-05-04T11:56:35.597Z,24.82
2018-05-04T11:59:03.252Z,24.35
2018-05-04T12:01:31.024Z,24.61
2018-05-04T12:03:58.736Z,24.00
2018-05-04T12:06:26.442Z,23.51
2018-05-04T12:08:54.103Z,23.96
2018-05-04T12:11:21.885Z,24.37
2018-05-04T12:13:49.640Z,23.96
2018-05-04T12:16:17.307Z,24.93
2018-05-04T12:18:45.173Z,25.49
2018-05-04T12:21:12.895Z,25.59
2018-05-04T12:23:40.638Z,25.23
2018-05-04T12:26:08.431Z,25.01
2018-05-04T12:28:36.231Z,24.99
2018-05-04T12:31:03.848Z,25.53
2018-05-04T12:33:31.708Z,26.29
2018-05-04T12:35:59.423Z,25.71
2018-05-04T12:38:27.359Z,25.71
2018-05-04T12:40:55.363Z,24.34
2018-05-04T12:43:23.052Z,24.01
2018-05-04T12:45:50.789Z,23.97
2018-05-04T12:48:18.609Z,24.98
2018-05-04T12:50:46.417Z,26.17
2018-05-04T12:53:14.181Z,26.14
2018-05-04T12:55:41.948Z,26.68
2018-05-04T12:58:09.811Z,26.44
2018-05-04T13:00:37.679Z,25.48
2018-05-04T13:03:05.446Z,26.07
2018-05-04T13:05:33.312Z,26.59
2018-05-04T13:08:01.075Z,26.93
2018-05-04T13:10:28.941Z,27.31
2018-05-04T13:12:56.656Z,27.67
2018-05-04T13:15:24.470Z,27.57
2018-05-04T13:17:52.239Z,27.48
2018-05-04T13:20:20.005Z,27.25
2018-05-04T13:22:47.724Z,27.39
2018-05-04T13:25:15.528Z,26.91
2018-05-04T13:27:43.137Z,27.39
2018-05-04T13:30:10.879Z,27.76
2018-05-04T13:32:38.617Z,27.68
2018-05-04T13:35:06.279Z,27.50
2018-05-04T13:37:35.209Z,27.65
2018-05-04T13:40:04.347Z,27.53
2018-05-04T13:42:32.254Z,27.48
2018-05-04T13:44:59.998Z,27.62
2018-05-04T13:47:27.764Z,27.80
2018-05-04T13:49:55.629Z,27.74
2018-05-04T13:52:23.360Z,27.91
2018-05-04T13:54:51.159Z,27.66
2018-05-04T13:57:18.924Z,27.93
2018-05-04T13:59:46.579Z,26.61
2018-05-04T14:02:14.350Z,26.49
2018-05-04T14:04:42.068Z,27.47
2018-05-04T14:07:09.982Z,27.25
2018-05-04T14:09:37.644Z,26.32
2018-05-04T14:12:05.305Z,26.98
2018-05-04T14:14:33.007Z,27.38
2018-05-04T14:17:00.835Z,27.52
2018-05-04T14:19:28.492Z,27.34
2018-05-04T14:21:56.262Z,27.44
2018-05-04T14:24:23.925Z,27.41
2018-05-04T14:26:51.688Z,27.57
2018-05-04T14:29:19.350Z,27.59
2018-05-04T14:31:47.012Z,27.50
2018-05-04T14:34:14.673Z,27.61
2018-05-04T14:36:42.436Z,27.46
2018-05-04T14:39:10.305Z,26.89
2018-05-04T14:41:38.071Z,27.06
2018-05-04T14:44:05.834Z,27.11
2018-05-04T14:46:33.599Z,27.24
2018-05-04T14:49:01.468Z,27.20
2018-05-04T14:51:29.206Z,26.59
2018-05-04T14:53:56.997Z,26.39
2018-05-04T14:56:24.864Z,25.22
2018-05-04T14:58:52.728Z,25.29
2018-05-04T15:01:20.383Z,26.07
2018-05-04T15:03:48.157Z,25.29
2018-05-04T15:06:15.875Z,26.03
2018-05-04T15:08:43.583Z,26.47
2018-05-04T15:11:11.251Z,26.83
2018-05-04T15:13:39.115Z,26.89
2018-05-04T15:16:06.861Z,26.78
2018-05-04T15:18:34.743Z,26.78
2018-05-04T15:21:02.507Z,26.62
2018-05-04T15:23:30.233Z,26.19
2018-05-04T15:25:58.138Z,26.31
2018-05-04T15:28:25.904Z,26.47
2018-05-04T15:30:53.667Z,26.14
2018-05-04T15:33:21.323Z,26.07
2018-05-04T15:35:49.094Z,26.20
2018-05-04T15:38:16.861Z,25.91
2018-05-04T15:40:44.502Z,26.06
2018-05-04T15:43:12.218Z,25.85
2018-05-04T15:45:39.867Z,26.14
2018-05-04T15:48:13.075Z,26.21
2018-05-04T15:50:46.220Z,26.45
2018-05-04T15:53:13.993Z,26.14
2018-05-04T15:55:41.806Z,26.22
2018-05-04T15:58:09.624Z,26.13
2018-05-04T16:00:37.287Z,26.35
2018-05-04T16:03:05.007Z,26.31
2018-05-04T16:05:32.773Z,26.30
2018-05-04T16:08:00.580Z,26.43
2018-05-04T16:10:28.308Z,25.89
2018-05-04T16:12:55.998Z,25.83
2018-05-04T16:15:23.716Z,25.73
2018-05-04T16:17:51.533Z,25.72
2018-05-04T16:20:19.250Z,25.96
2018-05-04T16:22:47.065Z,25.86
2018-05-04T16:25:14.934Z,25.26
2018-05-04T16:27:42.695Z,24.96
2018-05-04T16:30:10.356Z,24.73
2018-05-04T16:32:38.015Z,24.88
2018-05-04T16:35:05.785Z,24.58
2018-05-04T16:37:33.593Z,24.16
2018-05-04T16:40:01.427Z,24.02
2018-05-04T16:42:29.278Z,23.92
2018-05-04T16:44:57.074Z,23.96
2018-05-04T16:47:24.713Z,23.73
2018-05-04T16:49:52.578Z,23.52
2018-05-04T16:52:20.340Z,23.32
2018-05-04T16:54:48.073Z,23.20
2018-05-04T16:57:15.743Z,23.14
2018-05-04T16:59:43.423Z,22.88
2018-05-04T17:02:11.143Z,22.82
2018-05-04T17:04:38.960Z,22.76
2018-05-04T17:07:06.716Z,22.61
2018-05-04T17:09:34.365Z,22.72
2018-05-04T17:12:02.039Z,22.62
2018-05-04T17:14:29.914Z,22.59
2018-05-04T17:16:57.566Z,22.52
2018-05-04T17:19:25.342Z,22.39
2018-05-04T17:21:53.046Z,22.27
2018-05-04T17:24:20.869Z,22.26
2018-05-04T17:26:48.737Z,22.30
2018-05-04T17:29:16.571Z,22.09
2018-05-04T17:31:44.260Z,21.78
2018-05-04T17:34:12.114Z,21.83
2018-05-04T17:36:39.895Z,21.92
2018-05-04T17:39:07.661Z,21.96
2018-05-04T17:41:35.314Z,21.80
2018-05-04T17:44:03.087Z,21.83
2018-05-04T17:46:30.824Z,21.71
2018-05-04T17:48:58.513Z,21.66
2018-05-04T17:51:26.278Z,21.52
2018-05-04T17:53:53.945Z,21.49
2018-05-04T17:56:21.587Z,21.46
2018-05-04T17:58:49.464Z,21.42
2018-05-04T18:01:17.131Z,21.41
2018-05-04T18:03:44.858Z,21.39
2018-05-04T18:06:12.724Z,21.38
2018-05-04T18:08:41.485Z,21.28
2018-05-04T18:11:09.311Z,21.12
2018-05-04T18:13:37.081Z,21.00
2018-05-04T18:16:04.798Z,20.94
2018-05-04T18:18:32.558Z,20.89
2018-05-04T18:21:00.377Z,20.86
2018-05-04T18:23:28.091Z,20.84
2018-05-04T18:25:55.910Z,20.75
2018-05-04T18:28:23.769Z,20.64
2018-05-04T18:30:51.432Z,20.55
2018-05-04T18:33:19.094Z,20.45
2018-05-04T18:35:46.858Z,20.36
2018-05-04T18:38:14.594Z,20.27
2018-05-04T18:40:42.391Z,20.20
2018-05-04T18:43:10.226Z,20.21
2018-05-04T18:45:37.919Z,20.14
2018-05-04T18:48:05.577Z,20.22
2018-05-04T18:50:33.343Z,20.17
2018-05-04T18:53:01.043Z,20.18
2018-05-04T18:55:28.916Z,20.13
2018-05-04T18:57:56.738Z,20.03
2018-05-04T19:00:24.401Z,19.94
2018-05-04T19:02:57.895Z,19.92
2018-05-04T19:05:25.560Z,19.89
2018-05-04T19:07:53.535Z,19.75
2018-05-04T19:10:21.193Z,19.77
2018-05-04T19:12:49.052Z,19.67
2018-05-04T19:15:16.826Z,19.64
2018-05-04T19:17:44.694Z,19.53
2018-05-04T19:20:12.455Z,19.39
2018-05-04T19:22:40.323Z,19.28
2018-05-04T19:25:07.979Z,19.16
2018-05-04T19:27:35.803Z,19.01
2018-05-04T19:30:03.618Z,18.91
2018-05-04T19:32:31.270Z,18.75
2018-05-04T19:34:59.043Z,18.65
2018-05-04T19:37:27.210Z,18.76
2018-05-04T19:39:55.089Z,18.67
2018-05-04T19:42:22.741Z,18.65
2018-05-04T19:44:50.511Z,18.65
2018-05-04T19:47:18.275Z,18.61
2018-05-04T19:49:46.003Z,18.56
2018-05-04T19:52:13.803Z,18.51
2018-05-04T19:54:41.472Z,18.51
2018-05-04T19:57:09.177Z,18.45
2018-05-04T19:59:36.995Z,18.36
2018-05-04T20:02:04.711Z,18.28
2018-05-04T20:04:32.421Z,18.25
2018-05-04T20:07:00.076Z,18.22
2018-05-04T20:09:27.744Z,18.13
2018-05-04T20:11:55.407Z,18.09
2018-05-04T20:14:23.119Z,18.16
2018-05-04T20:16:50.935Z,18.06
2018-05-04T20:19:18.600Z,17.97
2018-05-04T20:21:46.465Z,17.91
2018-05-04T20:24:14.190Z,17.88
2018-05-04T20:26:42.098Z,17.80
2018-05-04T20:29:09.757Z,17.66
2018-05-04T20:31:37.488Z,17.60
2018-05-04T20:34:05.290Z,17.52
2018-05-04T20:36:33.120Z,17.43
2018-05-04T20:39:00.813Z,17.39
2018-05-04T20:41:28.480Z,17.37
2018-05-04T20:43:56.243Z,17.37
2018-05-04T20:46:24.110Z,17.30
2018-05-04T20:48:51.827Z,17.28
2018-05-04T20:51:19.639Z,17.21
2018-05-04T20:53:47.296Z,17.17
2018-05-04T20:56:14.967Z,17.26
2018-05-04T20:58:42.618Z,17.24
2018-05-04T21:01:10.392Z,17.22
2018-05-04T21:03:38.101Z,17.16
2018-05-04T21:06:05.917Z,17.11
2018-05-04T21:08:33.684Z,17.11
2018-05-04T21:11:01.402Z,17.01
2018-05-04T21:13:29.212Z,17.03
2018-05-04T21:15:56.873Z,17.08
2018-05-04T21:18:24.724Z,17.08
2018-05-04T21:20:52.403Z,16.97
2018-05-04T21:23:20.374Z,16.97
2018-05-04T21:25:47.985Z,16.99
2018-05-04T21:28:15.803Z,16.92
2018-05-04T21:30:43.610Z,16.87
2018-05-04T21:33:11.436Z,16.80
2018-05-04T21:35:39.195Z,16.78
2018-05-04T21:38:07.062Z,16.82
2018-05-04T21:40:34.801Z,16.77
2018-05-04T21:43:02.591Z,16.78
2018-05-04T21:45:30.356Z,16.69
2018-05-04T21:47:58.122Z,16.70
2018-05-04T21:50:25.784Z,16.73
2018-05-04T21:52:53.483Z,16.74
2018-05-04T21:55:21.301Z,16.74
2018-05-04T21:57:49.076Z,16.68
2018-05-04T22:00:16.784Z,16.63
2018-05-04T22:02:44.651Z,16.53
2018-05-04T22:05:12.468Z,16.53
2018-05-04T22:07:40.231Z,16.51
2018-05-04T22:10:07.999Z,16.54
2018-05-04T22:12:35.662Z,16.42
2018-05-04T22:15:03.532Z,16.42
2018-05-04T22:17:31.192Z,16.31
2018-05-04T22:19:58.916Z,16.42
2018-05-04T22:22:26.720Z,16.43
2018-05-04T22:24:54.451Z,16.39
2018-05-04T22:27:22.146Z,16.35
2018-05-04T22:29:49.857Z,16.30
2018-05-04T22:32:17.676Z,16.26
2018-05-04T22:34:45.544Z,16.20
2018-05-04T22:37:13.307Z,16.22
2018-05-04T22:39:41.074Z,16.23
2018-05-04T22:42:08.839Z,16.16
2018-05-04T22:44:36.705Z,16.14
2018-05-04T22:47:04.423Z,16.10
2018-05-04T22:49:32.232Z,16.11
2018-05-04T22:51:59.895Z,15.98
2018-05-04T22:54:27.687Z,15.86
2018-05-04T22:56:55.421Z,15.89
2018-05-04T22:59:23.186Z,15.88
2018-05-04T23:01:50.952Z,15.92
2018-05-04T23:04:18.612Z,15.94
2018-05-04T23:06:46.380Z,15.80
2018-05-04T23:09:14.097Z,15.69
2018-05-04T23:11:41.906Z,15.61
2018-05-04T23:14:09.633Z,15.57
2018-05-04T23:16:37.442Z,15.46
2018-05-04T23:19:05.100Z,15.49
2018-05-04T23:21:32.869Z,15.50
2018-05-04T23:24:00.627Z,15.53
2018-05-04T23:26:28.339Z,15.55
2018-05-04T23:28:56.053Z,15.47
2018-05-04T23:31:23.819Z,15.42
2018-05-04T23:33:51.539Z,15.40
2018-05-04T23:36:19.346Z,15.37
2018-05-04T23:38:47.112Z,15.26
2018-05-04T23:41:14.838Z,15.29
2018-05-04T23:43:42.533Z,15.24
2018-05-04T23:46:10.305Z,15.06
2018-05-04T23:48:38.068Z,15.00
2018-05-04T23:51:05.832Z,14.98
2018-05-04T23:53:33.669Z,14.97
2018-05-04T23:56:01.466Z,14.95
2018-05-04T23:58:29.334Z,14.92
